createdAt,value
2022-12-16T00:01:53.102Z,3.42
2022-12-16T00:04:23.182Z,6.38
2022-12-16T00:06:51.182Z,4.20
2022-12-16T00:09:20.267Z,10.05
2022-12-16T00:11:48.277Z,17.33
2022-12-16T00:14:18.841Z,17.25
2022-12-16T00:16:47.065Z,18.95
2022-12-16T00:19:15.236Z,17.50
2022-12-16T00:21:43.242Z,18.48
2022-12-16T00:24:11.283Z,24.77
2022-12-16T00:26:39.374Z,19.77
2022-12-16T00:29:10.420Z,18.30
2022-12-16T00:31:40.007Z,13.18
2022-12-16T00:34:08.392Z,11.25
2022-12-16T00:36:36.404Z,13.65
2022-12-16T00:39:04.689Z,7.32
2022-12-16T00:41:32.756Z,5.28
2022-12-16T00:44:01.469Z,8.25
2022-12-16T00:46:29.803Z,5.65
2022-12-16T00:48:59.740Z,4.85
2022-12-16T00:51:27.731Z,6.88
2022-12-16T00:53:55.726Z,3.97
2022-12-16T00:56:23.999Z,1.80
2022-12-16T00:58:52.323Z,3.08
2022-12-16T01:01:20.694Z,3.13
2022-12-16T01:03:48.831Z,3.95
2022-12-16T01:06:19.326Z,2.55
2022-12-16T01:08:48.434Z,1.30
2022-12-16T01:11:19.046Z,1.77
2022-12-16T01:13:51.349Z,2.33
2022-12-16T01:16:20.971Z,3.85
2022-12-16T01:18:49.175Z,1.23
2022-12-16T01:21:18.544Z,1.70
2022-12-16T01:23:48.773Z,1.40
2022-12-16T01:26:19.323Z,1.65
2022-12-16T01:28:50.209Z,1.05
2022-12-16T01:31:21.455Z,1.20
2022-12-16T01:33:49.526Z,1.45
2022-12-16T01:36:19.998Z,1.83
2022-12-16T01:38:48.288Z,1.27
2022-12-16T01:41:18.665Z,2.60
2022-12-16T01:43:47.741Z,1.38
2022-12-16T01:46:24.232Z,1.05
2022-12-16T01:48:59.163Z,0.77
2022-12-16T01:51:36.633Z,1.15
2022-12-16T01:54:11.253Z,1.42
2022-12-16T01:56:45.777Z,1.48
2022-12-16T01:59:18.703Z,1.52
2022-12-16T02:01:47.343Z,2.28
2022-12-16T02:04:15.675Z,2.08
2022-12-16T02:06:45.182Z,2.30
2022-12-16T02:09:16.050Z,2.72
2022-12-16T02:12:13.985Z,3.15
2022-12-16T02:15:09.626Z,2.50
2022-12-16T02:17:51.570Z,1.35
2022-12-16T02:21:07.682Z,1.42
2022-12-16T02:24:16.507Z,2.80
2022-12-16T02:27:32.612Z,1.92
2022-12-16T02:30:33.943Z,0.60
2022-12-16T02:33:18.447Z,2.30
2022-12-16T02:35:56.126Z,1.60
2022-12-16T02:38:35.911Z,0.80
2022-12-16T02:41:07.708Z,0.73
2022-12-16T02:43:55.576Z,1.98
2022-12-16T02:46:28.880Z,1.20
2022-12-16T02:48:58.400Z,1.33
2022-12-16T02:51:28.256Z,0.88
2022-12-16T02:53:57.329Z,0.77
2022-12-16T02:56:46.441Z,1.75
2022-12-16T02:59:28.483Z,2.42
2022-12-16T03:02:12.298Z,1.50
2022-12-16T03:04:48.729Z,2.85
2022-12-16T03:07:21.444Z,0.85
2022-12-16T03:09:52.603Z,0.75
2022-12-16T03:12:23.866Z,0.60
2022-12-16T03:14:54.836Z,2.15
2022-12-16T03:17:28.569Z,2.95
2022-12-16T03:20:05.263Z,3.72
2022-12-16T03:22:39.675Z,1.55
2022-12-16T03:25:09.039Z,3.50
2022-12-16T03:27:46.104Z,2.45
2022-12-16T03:30:20.692Z,2.05
2022-12-16T03:32:58.773Z,1.33
2022-12-16T03:35:34.738Z,3.17
2022-12-16T03:38:07.976Z,2.17
2022-12-16T03:40:38.898Z,4.45
2022-12-16T03:43:08.808Z,3.65
2022-12-16T03:45:42.661Z,3.90
2022-12-16T03:48:15.552Z,6.78
2022-12-16T03:50:43.691Z,6.28
2022-12-16T03:53:11.750Z,5.75
2022-12-16T03:55:39.758Z,4.15
2022-12-16T03:58:08.906Z,3.50
2022-12-16T04:00:37.500Z,4.78
2022-12-16T04:03:05.769Z,5.63
2022-12-16T04:05:35.315Z,4.35
2022-12-16T04:08:03.331Z,3.38
2022-12-16T04:10:49.013Z,6.03
2022-12-16T04:13:34.961Z,3.45
2022-12-16T04:16:21.304Z,3.00
2022-12-16T04:19:07.843Z,1.60
2022-12-16T04:21:55.771Z,3.35
2022-12-16T04:24:29.719Z,2.17
2022-12-16T04:27:16.103Z,3.15
2022-12-16T04:29:59.240Z,4.55
2022-12-16T04:32:27.912Z,7.65
2022-12-16T04:34:54.902Z,3.85
2022-12-16T04:37:42.003Z,3.40
2022-12-16T04:40:28.911Z,4.97
2022-12-16T04:43:14.472Z,2.72
2022-12-16T04:45:59.951Z,2.97
2022-12-16T04:48:45.604Z,7.28
2022-12-16T04:51:31.385Z,3.13
2022-12-16T04:54:18.308Z,4.65
2022-12-16T04:57:18.340Z,6.18
2022-12-16T05:00:03.909Z,1.85
2022-12-16T05:02:49.805Z,1.55
2022-12-16T05:05:35.593Z,2.00
2022-12-16T05:08:21.255Z,3.28
2022-12-16T05:11:16.493Z,4.82
2022-12-16T05:14:02.208Z,6.95
2022-12-16T05:16:47.678Z,4.22
2022-12-16T05:19:33.227Z,4.03
2022-12-16T05:22:18.849Z,3.85
2022-12-16T05:25:09.699Z,3.78
2022-12-16T05:27:56.399Z,3.85
2022-12-16T05:30:42.097Z,7.40
2022-12-16T05:33:27.986Z,3.63
2022-12-16T05:36:13.676Z,4.45
2022-12-16T05:38:59.637Z,4.35
2022-12-16T05:41:45.120Z,2.88
2022-12-16T05:44:32.496Z,2.70
2022-12-16T05:47:18.121Z,1.60
2022-12-16T05:50:03.881Z,2.28
2022-12-16T05:52:49.571Z,1.83
2022-12-16T05:55:35.654Z,1.73
2022-12-16T05:58:21.139Z,2.15
2022-12-16T06:01:23.110Z,2.53
2022-12-16T06:04:12.837Z,1.83
2022-12-16T06:07:01.396Z,3.08
2022-12-16T06:09:49.578Z,3.45
2022-12-16T06:12:40.402Z,2.72
2022-12-16T06:15:27.205Z,3.00
2022-12-16T06:18:14.148Z,3.05
2022-12-16T06:21:00.211Z,6.05
2022-12-16T06:23:45.909Z,3.45
2022-12-16T06:26:31.697Z,5.53
2022-12-16T06:29:17.316Z,7.18
2022-12-16T06:32:02.820Z,7.20
2022-12-16T06:35:01.388Z,6.35
2022-12-16T06:37:46.873Z,5.88
2022-12-16T06:40:32.513Z,5.57
2022-12-16T06:43:18.194Z,7.43
2022-12-16T06:46:03.627Z,5.53
2022-12-16T06:48:49.640Z,5.47
2022-12-16T06:51:36.785Z,7.63
2022-12-16T06:54:22.395Z,5.45
2022-12-16T06:57:22.576Z,4.53
2022-12-16T07:00:07.970Z,4.70
2022-12-16T07:02:54.295Z,5.30
2022-12-16T07:05:40.996Z,5.65
2022-12-16T07:08:27.716Z,5.32
2022-12-16T07:11:17.047Z,5.72
2022-12-16T07:14:03.166Z,5.70
2022-12-16T07:16:48.757Z,5.72
2022-12-16T07:19:34.726Z,6.70
2022-12-16T07:22:20.249Z,7.32
2022-12-16T07:25:07.592Z,5.07
2022-12-16T07:27:53.449Z,5.55
2022-12-16T07:30:39.082Z,3.63
2022-12-16T07:33:24.606Z,6.07
2022-12-16T07:36:10.206Z,5.28
2022-12-16T07:38:55.654Z,4.97
2022-12-16T07:41:43.685Z,5.65
2022-12-16T07:44:28.987Z,5.88
2022-12-16T07:47:14.456Z,6.72
2022-12-16T07:50:00.160Z,5.10
2022-12-16T07:52:45.685Z,5.88
2022-12-16T07:55:42.759Z,6.55
2022-12-16T07:58:30.059Z,5.90
2022-12-16T08:01:15.889Z,7.22
2022-12-16T08:04:02.158Z,8.05
2022-12-16T08:06:47.889Z,5.63
2022-12-16T08:09:33.599Z,8.32
2022-12-16T08:12:19.210Z,7.85
2022-12-16T08:15:06.073Z,9.80
2022-12-16T08:17:51.743Z,10.27
2022-12-16T08:20:38.518Z,9.85
2022-12-16T08:23:24.165Z,11.10
2022-12-16T08:26:18.305Z,10.93
2022-12-16T08:29:27.331Z,10.38
2022-12-16T08:32:10.926Z,10.73
2022-12-16T08:34:56.502Z,12.95
2022-12-16T08:37:42.199Z,12.95
2022-12-16T08:40:36.664Z,11.25
2022-12-16T08:43:22.854Z,14.77
2022-12-16T08:46:12.641Z,18.08
2022-12-16T08:49:00.337Z,10.07
2022-12-16T08:51:46.363Z,14.23
2022-12-16T08:54:32.060Z,13.93
2022-12-16T08:57:26.042Z,11.93
2022-12-16T09:00:11.605Z,9.43
2022-12-16T09:02:57.426Z,12.30
2022-12-16T09:05:44.945Z,9.55
2022-12-16T09:08:30.411Z,9.23
2022-12-16T09:11:19.514Z,7.68
2022-12-16T09:14:05.635Z,8.30
2022-12-16T09:16:51.172Z,8.57
2022-12-16T09:19:37.242Z,8.30
2022-12-16T09:22:24.316Z,6.10
2022-12-16T09:25:10.185Z,9.93
2022-12-16T09:27:55.838Z,6.73
2022-12-16T09:30:50.481Z,9.47
2022-12-16T09:33:37.013Z,11.80
2022-12-16T09:36:23.369Z,12.73
2022-12-16T09:39:10.863Z,12.67
2022-12-16T09:42:02.805Z,9.93
2022-12-16T09:45:06.218Z,9.67
2022-12-16T09:48:04.961Z,11.43
2022-12-16T09:50:52.539Z,10.70
2022-12-16T09:53:41.188Z,9.47
2022-12-16T09:56:35.854Z,6.70
2022-12-16T09:59:27.586Z,6.20
2022-12-16T10:02:14.631Z,4.20
2022-12-16T10:05:01.353Z,6.40
2022-12-16T10:07:55.313Z,5.03
2022-12-16T10:10:58.961Z,6.37
2022-12-16T10:13:58.408Z,5.23
2022-12-16T10:16:54.292Z,5.00
2022-12-16T10:19:56.427Z,5.80
2022-12-16T10:22:52.075Z,6.93
2022-12-16T10:25:42.573Z,7.33
2022-12-16T10:28:36.764Z,9.03
2022-12-16T10:31:35.246Z,7.20
2022-12-16T10:34:28.126Z,7.13
2022-12-16T10:37:19.106Z,10.80
2022-12-16T10:40:14.369Z,6.80
2022-12-16T10:43:08.768Z,7.33
2022-12-16T10:46:04.116Z,5.80
2022-12-16T10:48:57.001Z,8.77
2022-12-16T10:51:47.103Z,7.33
2022-12-16T10:54:57.193Z,16.73
2022-12-16T10:57:57.484Z,17.17
2022-12-16T11:01:00.390Z,18.47
2022-12-16T11:03:51.042Z,19.23
2022-12-16T11:06:43.983Z,17.40
2022-12-16T11:09:52.526Z,19.10
2022-12-16T11:12:45.937Z,13.77
2022-12-16T11:15:44.780Z,12.93
2022-12-16T11:18:34.364Z,14.17
2022-12-16T11:21:31.839Z,15.07
2022-12-16T11:24:33.278Z,12.93
2022-12-16T11:27:22.554Z,10.77
2022-12-16T11:30:11.191Z,9.47
2022-12-16T11:33:00.644Z,7.60
2022-12-16T11:35:50.953Z,10.53
2022-12-16T11:38:44.443Z,9.67
2022-12-16T11:41:43.440Z,10.40
2022-12-16T11:44:40.010Z,10.93
2022-12-16T11:47:40.642Z,10.30
2022-12-16T11:50:34.531Z,9.33
2022-12-16T11:53:20.992Z,10.53
2022-12-16T11:56:16.356Z,24.93
2022-12-16T11:59:08.783Z,13.20
2022-12-16T12:02:08.359Z,15.03
2022-12-16T12:04:54.430Z,11.70
2022-12-16T12:07:53.374Z,12.60
2022-12-16T12:11:15.744Z,14.70
2022-12-16T12:14:18.708Z,17.07
2022-12-16T12:17:23.212Z,19.87
2022-12-16T12:20:29.422Z,18.05
2022-12-16T12:23:25.654Z,20.33
2022-12-16T12:26:31.283Z,20.48
2022-12-16T12:29:33.051Z,15.77
2022-12-16T12:32:37.250Z,16.17
2022-12-16T12:35:44.821Z,17.27
2022-12-16T12:38:39.241Z,18.05
2022-12-16T12:41:38.002Z,17.48
2022-12-16T12:44:48.717Z,16.48
2022-12-16T12:47:37.753Z,17.88
2022-12-16T12:50:32.398Z,17.95
2022-12-16T12:53:40.717Z,19.20
2022-12-16T12:56:45.494Z,13.15
2022-12-16T12:59:41.476Z,15.80
2022-12-16T13:02:35.876Z,14.85
2022-12-16T13:05:24.719Z,16.20
2022-12-16T13:08:10.681Z,15.95
2022-12-16T13:10:54.081Z,11.55
2022-12-16T13:14:02.565Z,13.57
2022-12-16T13:17:25.827Z,12.70
2022-12-16T13:20:16.175Z,10.35
2022-12-16T13:23:04.367Z,13.18
2022-12-16T13:25:55.971Z,11.63
2022-12-16T13:28:49.645Z,13.43
2022-12-16T13:31:38.408Z,16.85
2022-12-16T13:34:38.886Z,15.68
2022-12-16T13:37:36.997Z,15.52
2022-12-16T13:40:36.980Z,21.65
2022-12-16T13:43:23.966Z,20.33
2022-12-16T13:46:36.536Z,28.67
2022-12-16T13:49:59.642Z,17.48
2022-12-16T13:53:01.474Z,21.08
2022-12-16T13:55:52.081Z,16.02
2022-12-16T13:58:55.349Z,27.85
2022-12-16T14:01:56.018Z,24.13
2022-12-16T14:04:47.680Z,14.60
2022-12-16T14:07:36.958Z,13.52
2022-12-16T14:10:23.822Z,14.73
2022-12-16T14:13:21.040Z,17.85
2022-12-16T14:16:20.183Z,15.32
2022-12-16T14:19:30.528Z,13.63
2022-12-16T14:22:32.173Z,15.60
2022-12-16T14:25:28.145Z,14.73
2022-12-16T14:28:14.048Z,14.98
2022-12-16T14:31:00.682Z,15.80
2022-12-16T14:33:48.614Z,19.65
2022-12-16T14:36:41.718Z,17.60
2022-12-16T14:39:39.993Z,14.63
2022-12-16T14:42:38.364Z,17.30
2022-12-16T14:45:40.500Z,15.82
2022-12-16T14:48:47.632Z,13.50
2022-12-16T14:51:48.432Z,12.40
2022-12-16T14:54:49.862Z,12.63
2022-12-16T14:57:40.235Z,17.80
2022-12-16T15:00:35.946Z,17.20
2022-12-16T15:03:34.599Z,13.60
2022-12-16T15:06:23.805Z,12.07
2022-12-16T15:09:15.765Z,13.38
2022-12-16T15:12:03.232Z,11.32
2022-12-16T15:14:53.231Z,12.63
2022-12-16T15:17:43.364Z,13.77
2022-12-16T15:20:39.013Z,12.13
2022-12-16T15:23:37.801Z,10.65
2022-12-16T15:26:25.477Z,13.35
2022-12-16T15:29:12.038Z,12.93
2022-12-16T15:32:03.127Z,11.35
2022-12-16T15:34:55.374Z,19.13
2022-12-16T15:37:44.557Z,18.98
2022-12-16T15:40:46.091Z,20.65
2022-12-16T15:43:48.892Z,13.77
2022-12-16T15:46:40.719Z,16.55
2022-12-16T15:49:38.769Z,15.68
2022-12-16T15:52:52.717Z,18.95
2022-12-16T15:55:49.123Z,13.63
2022-12-16T15:58:45.186Z,15.45
2022-12-16T16:01:38.616Z,14.88
2022-12-16T16:04:39.591Z,13.02
2022-12-16T16:07:50.671Z,14.05
2022-12-16T16:10:45.957Z,13.13
2022-12-16T16:13:31.766Z,15.85
2022-12-16T16:16:17.737Z,12.20
2022-12-16T16:19:05.024Z,21.33
2022-12-16T16:21:50.874Z,17.52
2022-12-16T16:24:36.492Z,13.07
2022-12-16T16:27:28.839Z,13.07
2022-12-16T16:30:14.607Z,12.73
2022-12-16T16:33:00.178Z,12.15
2022-12-16T16:35:48.788Z,13.10
2022-12-16T16:38:34.873Z,12.48
2022-12-16T16:41:20.292Z,9.85
2022-12-16T16:44:05.780Z,9.88
2022-12-16T16:46:56.475Z,10.27
2022-12-16T16:49:47.412Z,13.10
2022-12-16T16:52:43.782Z,12.18
2022-12-16T16:55:36.407Z,14.95
2022-12-16T16:58:30.731Z,12.23
2022-12-16T17:01:16.438Z,15.80
2022-12-16T17:04:02.666Z,14.45
2022-12-16T17:07:02.873Z,15.45
2022-12-16T17:09:50.159Z,16.83
2022-12-16T17:12:39.067Z,18.92
2022-12-16T17:15:35.817Z,15.95
2022-12-16T17:18:43.083Z,17.35
2022-12-16T17:21:30.490Z,20.15
2022-12-16T17:24:16.052Z,21.48
2022-12-16T17:27:04.049Z,20.42
2022-12-16T17:29:57.491Z,21.27
2022-12-16T17:32:43.421Z,18.30
2022-12-16T17:35:30.110Z,20.88
2022-12-16T17:38:15.577Z,30.00
2022-12-16T17:41:01.111Z,26.85
2022-12-16T17:43:48.038Z,22.50
2022-12-16T17:46:33.727Z,21.80
2022-12-16T17:49:19.511Z,18.27
2022-12-16T17:52:13.392Z,20.85
2022-12-16T17:54:59.016Z,17.40
2022-12-16T17:57:44.635Z,18.08
2022-12-16T18:00:32.965Z,22.92
2022-12-16T18:03:18.867Z,19.02
2022-12-16T18:06:04.892Z,17.13
2022-12-16T18:08:50.821Z,21.17
2022-12-16T18:11:51.267Z,21.08
2022-12-16T18:14:36.855Z,27.48
2022-12-16T18:17:24.133Z,35.20
2022-12-16T18:20:09.702Z,28.60
2022-12-16T18:22:55.114Z,27.10
2022-12-16T18:25:40.729Z,24.20
2022-12-16T18:28:26.321Z,28.60
2022-12-16T18:31:11.963Z,27.40
2022-12-16T18:33:59.006Z,26.33
2022-12-16T18:36:44.667Z,24.33
2022-12-16T18:39:30.388Z,26.70
2022-12-16T18:42:16.209Z,23.63
2022-12-16T18:45:01.880Z,22.90
2022-12-16T18:47:47.686Z,28.33
2022-12-16T18:50:38.123Z,28.17
2022-12-16T18:53:24.775Z,25.90
2022-12-16T18:56:19.391Z,26.42
2022-12-16T18:59:04.864Z,30.73
2022-12-16T19:01:51.115Z,26.77
2022-12-16T19:04:36.841Z,26.27
2022-12-16T19:07:23.620Z,24.13
2022-12-16T19:10:09.271Z,21.85
2022-12-16T19:12:55.303Z,17.92
2022-12-16T19:15:41.667Z,17.35
2022-12-16T19:18:27.873Z,17.35
2022-12-16T19:21:14.905Z,15.02
2022-12-16T19:24:02.442Z,16.23
2022-12-16T19:26:48.049Z,27.35
2022-12-16T19:29:33.760Z,18.38
2022-12-16T19:32:19.450Z,17.42
2022-12-16T19:35:05.284Z,15.88
2022-12-16T19:37:53.644Z,16.42
2022-12-16T19:40:40.832Z,20.40
2022-12-16T19:43:26.369Z,18.48
2022-12-16T19:46:12.534Z,19.17
2022-12-16T19:48:58.857Z,16.95
2022-12-16T19:51:47.312Z,25.70
2022-12-16T19:54:33.173Z,24.27
2022-12-16T19:57:20.433Z,21.15
2022-12-16T20:00:06.343Z,25.33
2022-12-16T20:02:57.616Z,21.67
2022-12-16T20:05:46.329Z,21.48
2022-12-16T20:08:32.306Z,23.55
2022-12-16T20:11:32.237Z,23.92
2022-12-16T20:14:19.184Z,23.48
2022-12-16T20:17:04.925Z,21.75
2022-12-16T20:19:50.698Z,27.88
2022-12-16T20:22:37.369Z,33.65
2022-12-16T20:25:23.724Z,30.25
2022-12-16T20:28:09.198Z,32.08
2022-12-16T20:30:56.655Z,30.55
2022-12-16T20:33:42.624Z,37.28
2022-12-16T20:36:29.258Z,32.17
2022-12-16T20:39:14.873Z,30.00
2022-12-16T20:42:00.583Z,33.30
2022-12-16T20:44:46.224Z,35.20
2022-12-16T20:47:33.505Z,30.77
2022-12-16T20:50:19.305Z,30.92
2022-12-16T20:53:05.142Z,30.15
2022-12-16T20:55:50.876Z,26.60
2022-12-16T20:58:37.846Z,37.42
2022-12-16T21:01:24.438Z,34.15
2022-12-16T21:04:14.723Z,29.10
2022-12-16T21:07:00.277Z,31.92
2022-12-16T21:09:45.851Z,32.05
2022-12-16T21:12:31.514Z,33.67
2022-12-16T21:15:17.058Z,29.77
2022-12-16T21:18:02.659Z,31.40
2022-12-16T21:20:49.948Z,28.05
2022-12-16T21:23:35.691Z,28.83
2022-12-16T21:26:21.770Z,26.85
2022-12-16T21:29:07.325Z,28.48
2022-12-16T21:31:53.549Z,24.35
2022-12-16T21:34:39.620Z,21.55
2022-12-16T21:37:26.497Z,16.05
2022-12-16T21:40:12.093Z,17.98
2022-12-16T21:42:57.630Z,17.48
2022-12-16T21:45:43.368Z,11.55
2022-12-16T21:48:30.454Z,12.02
2022-12-16T21:51:18.633Z,17.35
2022-12-16T21:54:17.382Z,13.80
2022-12-16T21:57:02.960Z,9.63
2022-12-16T21:59:48.454Z,13.13
2022-12-16T22:02:36.819Z,15.68
2022-12-16T22:05:23.021Z,13.40
2022-12-16T22:08:23.028Z,27.42
2022-12-16T22:11:10.019Z,13.02
2022-12-16T22:17:01.421Z,8.48
2022-12-16T22:19:47.086Z,11.35
2022-12-16T22:22:32.775Z,11.18
2022-12-16T22:25:18.316Z,13.70
2022-12-16T22:28:05.272Z,16.27
2022-12-16T22:30:50.877Z,15.32
2022-12-16T22:33:37.386Z,18.05
2022-12-16T22:36:25.908Z,17.70
2022-12-16T22:39:11.767Z,16.17
2022-12-16T22:41:57.236Z,17.42
2022-12-16T22:44:44.221Z,18.05
2022-12-16T22:47:29.730Z,19.95
2022-12-16T22:50:15.537Z,20.92
2022-12-16T22:53:01.429Z,16.40
2022-12-16T22:55:46.914Z,19.80
2022-12-16T22:58:32.442Z,18.27
2022-12-16T23:01:19.495Z,16.95
2022-12-16T23:04:05.435Z,19.05
2022-12-16T23:06:51.915Z,20.33
2022-12-16T23:09:37.541Z,15.00
2022-12-16T23:12:23.992Z,17.38
2022-12-16T23:15:13.180Z,17.95
2022-12-16T23:18:00.115Z,18.20
2022-12-16T23:20:45.497Z,20.38
2022-12-16T23:23:33.880Z,20.00
2022-12-16T23:26:21.590Z,19.73
2022-12-16T23:29:09.007Z,20.17
2022-12-16T23:31:56.576Z,19.50
2022-12-16T23:34:46.040Z,18.65
2022-12-16T23:37:31.627Z,20.30
2022-12-16T23:40:17.226Z,20.23
2022-12-16T23:43:03.266Z,24.42
2022-12-16T23:45:48.709Z,21.05
2022-12-16T23:48:35.701Z,21.60
2022-12-16T23:51:22.936Z,20.27
2022-12-16T23:54:08.513Z,21.70
2022-12-16T23:56:54.473Z,16.35
2022-12-16T23:59:42.124Z,17.90
